Time;durP1;ratioP1;P1;durP2;ratioP2;P2;SDS_P1;SDS_P2;PMS_P1;PMS_P2;Temp;Humidity;BMP_temperature;BMP_pressure;BME280_temperature;BME280_humidity;BME280_pressure;Samples;Min_cycle;Max_cycle;Signal;HPM_P1;HPM_P2
2023/05/01 00:02:18;;;;;;;66.65;62.53;;;7.90;99.90;;;;;;5085321;28;20385;-67
2023/05/01 00:04:44;;;;;;;70.65;67.03;;;7.90;99.90;;;;;;5079354;28;20035;-67
2023/05/01 00:07:10;;;;;;;70.00;66.43;;;7.90;99.90;;;;;;5085538;28;20120;-67
2023/05/01 00:09:35;;;;;;;71.75;68.15;;;7.80;99.90;;;;;;5083808;28;20098;-67
2023/05/01 00:12:02;;;;;;;79.20;75.40;;;7.80;99.90;;;;;;5068235;28;20044;-67
2023/05/01 00:14:28;;;;;;;75.05;71.20;;;7.80;99.90;;;;;;5087414;28;20372;-67
2023/05/01 00:16:54;;;;;;;73.65;70.05;;;7.70;99.90;;;;;;5081160;28;20048;-66
2023/05/01 00:19:20;;;;;;;77.30;73.40;;;7.70;99.90;;;;;;5082719;28;20040;-67
2023/05/01 00:21:47;;;;;;;75.43;71.28;;;7.60;99.90;;;;;;5079988;28;20051;-66
2023/05/01 00:24:16;;;;;;;80.65;76.80;;;7.60;99.90;;;;;;5074469;28;20043;-66
2023/05/01 00:26:42;;;;;;;78.38;74.65;;;7.60;99.90;;;;;;5076326;28;20048;-67
2023/05/01 00:29:08;;;;;;;80.82;76.82;;;7.50;99.90;;;;;;5072733;28;20067;-67
2023/05/01 00:31:34;;;;;;;83.35;79.28;;;7.50;99.90;;;;;;5067341;28;20102;-67
2023/05/01 00:34:00;;;;;;;83.53;79.63;;;7.40;99.90;;;;;;5072815;28;20036;-66
2023/05/01 00:36:26;;;;;;;83.28;79.18;;;7.40;99.90;;;;;;5040601;28;20119;-67
2023/05/01 00:38:51;;;;;;;81.60;77.55;;;7.40;99.90;;;;;;5082223;28;20048;-66
2023/05/01 00:41:17;;;;;;;82.47;78.53;;;7.30;99.90;;;;;;5083015;28;20063;-67
2023/05/01 00:43:43;;;;;;;80.45;76.65;;;7.30;99.90;;;;;;5078818;28;20036;-66
2023/05/01 00:46:09;;;;;;;80.25;76.38;;;7.30;99.90;;;;;;5068665;28;20041;-67
2023/05/01 00:48:35;;;;;;;78.88;74.97;;;7.30;99.90;;;;;;5073813;28;20054;-67
2023/05/01 00:51:04;;;;;;;77.25;73.40;;;7.30;99.90;;;;;;5082177;28;20040;-66
2023/05/01 00:53:31;;;;;;;80.65;76.75;;;7.30;99.90;;;;;;5082849;28;20044;-67
2023/05/01 00:55:58;;;;;;;83.80;79.82;;;7.20;99.90;;;;;;5081012;28;20039;-66
2023/05/01 00:58:23;;;;;;;79.40;75.38;;;7.30;99.90;;;;;;5084831;28;20043;-66
2023/05/01 01:00:49;;;;;;;81.43;77.60;;;7.20;99.90;;;;;;5066548;28;20059;-66
2023/05/01 01:03:15;;;;;;;80.63;76.40;;;7.20;99.90;;;;;;5089370;28;20093;-66
2023/05/01 01:05:55;;;;;;;82.80;78.78;;;7.20;99.90;;;;;;5087832;28;20067;-66
2023/05/01 01:08:46;;;;;;;82.25;78.10;;;7.20;99.90;;;;;;5065821;28;20067;-67
2023/05/01 01:11:33;;;;;;;83.65;79.53;;;7.20;99.90;;;;;;5081192;28;20123;-67
2023/05/01 01:14:07;;;;;;;79.38;75.40;;;7.10;99.90;;;;;;5081968;28;20394;-67
2023/05/01 01:16:44;;;;;;;76.18;72.60;;;7.10;99.90;;;;;;5068241;28;20054;-67
2023/05/01 01:19:31;;;;;;;78.47;74.55;;;7.10;99.90;;;;;;5078602;28;20158;-67
2023/05/01 01:22:05;;;;;;;78.00;74.20;;;7.00;99.90;;;;;;5081419;28;20053;-66
2023/05/01 01:25:22;;;;;;;75.95;72.22;;;7.00;99.90;;;;;;5078000;28;20044;-67
2023/05/01 01:28:33;;;;;;;78.80;75.10;;;7.00;99.90;;;;;;5028251;28;20053;-67
2023/05/01 01:31:26;;;;;;;83.05;78.90;;;7.00;99.90;;;;;;5044354;28;20052;-67
2023/05/01 01:34:03;;;;;;;78.45;74.63;;;6.90;99.90;;;;;;5030202;28;20090;-67
2023/05/01 01:36:46;;;;;;;82.47;78.05;;;6.90;99.90;;;;;;5029045;28;20463;-67
2023/05/01 01:39:36;;;;;;;81.32;77.22;;;6.80;99.90;;;;;;5048819;28;20052;-67
2023/05/01 01:42:08;;;;;;;83.43;79.38;;;6.80;99.90;;;;;;5035456;28;20656;-66
2023/05/01 01:44:41;;;;;;;83.60;79.72;;;6.80;99.90;;;;;;5043619;28;20485;-67
2023/05/01 01:47:11;;;;;;;83.10;78.88;;;6.80;99.90;;;;;;5052315;28;20498;-67
2023/05/01 01:49:42;;;;;;;87.72;83.45;;;6.70;99.90;;;;;;5034888;28;20049;-67
2023/05/01 01:52:11;;;;;;;83.75;79.95;;;6.70;99.90;;;;;;5032839;28;20099;-67
2023/05/01 01:54:42;;;;;;;83.63;79.65;;;6.70;99.90;;;;;;5031646;28;20052;-67
2023/05/01 01:57:11;;;;;;;82.82;78.97;;;6.70;99.90;;;;;;5034430;28;20114;-67
2023/05/01 01:59:40;;;;;;;85.05;81.05;;;6.70;99.90;;;;;;5053508;28;20089;-67
2023/05/01 02:02:07;;;;;;;85.57;81.32;;;6.70;99.90;;;;;;5030283;28;20037;-66
2023/05/01 02:04:35;;;;;;;82.32;78.35;;;6.70;99.90;;;;;;5084396;28;20128;-67
2023/05/01 02:07:01;;;;;;;83.15;79.07;;;6.70;99.90;;;;;;5084006;28;20355;-67
2023/05/01 02:09:28;;;;;;;82.93;78.72;;;6.70;99.90;;;;;;5081888;28;20036;-67
2023/05/01 02:11:55;;;;;;;82.90;78.72;;;6.70;99.90;;;;;;5084769;28;20055;-67
2023/05/01 02:14:25;;;;;;;83.60;79.47;;;6.70;99.90;;;;;;5084920;28;20404;-67
2023/05/01 02:16:51;;;;;;;85.22;81.10;;;6.70;99.90;;;;;;5087807;28;20036;-67
2023/05/01 02:19:19;;;;;;;82.10;78.10;;;6.70;99.90;;;;;;5088122;28;20055;-67
2023/05/01 02:21:45;;;;;;;84.68;80.50;;;6.60;99.90;;;;;;5084163;28;20129;-67
2023/05/01 02:24:12;;;;;;;82.75;78.78;;;6.60;99.90;;;;;;5086971;28;20036;-67
2023/05/01 02:26:46;;;;;;;83.57;79.28;;;6.60;99.90;;;;;;5086328;27;20059;-67
2023/05/01 02:29:12;;;;;;;;;;;6.60;99.90;;;;;;5076547;28;20471;-67
2023/05/01 02:31:37;;;;;;;88.40;84.28;;;6.60;99.90;;;;;;5080313;28;20006;-67
2023/05/01 02:34:03;;;;;;;89.82;85.53;;;6.60;99.90;;;;;;5068884;28;20043;-66
2023/05/01 02:36:29;;;;;;;87.85;83.65;;;6.60;99.90;;;;;;5107091;28;20449;-67
2023/05/01 02:38:54;;;;;;;90.90;86.50;;;6.60;99.90;;;;;;5090032;28;20048;-67
2023/05/01 02:41:21;;;;;;;88.18;83.88;;;6.50;99.90;;;;;;5088385;28;20042;-67
2023/05/01 02:43:54;;;;;;;88.80;84.47;;;6.50;99.90;;;;;;5083652;28;20039;-67
2023/05/01 02:46:23;;;;;;;91.07;86.70;;;6.50;99.90;;;;;;5088184;28;20047;-66
2023/05/01 02:48:49;;;;;;;93.25;88.95;;;6.40;99.90;;;;;;5074587;28;20399;-67
2023/05/01 02:51:17;;;;;;;91.90;87.60;;;6.40;99.90;;;;;;5085140;28;20100;-67
2023/05/01 02:53:43;;;;;;;94.55;89.60;;;6.40;99.90;;;;;;5089690;28;20044;-67
2023/05/01 02:56:09;;;;;;;93.65;89.15;;;6.30;99.90;;;;;;5084500;28;20052;-67
2023/05/01 02:58:35;;;;;;;97.68;93.00;;;6.30;99.90;;;;;;5086440;28;20126;-67
2023/05/01 03:01:01;;;;;;;95.53;91.00;;;6.30;99.90;;;;;;5079862;28;20047;-67
2023/05/01 03:03:27;;;;;;;94.38;89.90;;;6.20;99.90;;;;;;5090698;28;20112;-67
2023/05/01 03:05:52;;;;;;;96.70;92.30;;;6.20;99.90;;;;;;5085215;28;20039;-67
2023/05/01 03:08:18;;;;;;;100.05;95.43;;;6.20;99.90;;;;;;5091123;28;20046;-67
2023/05/01 03:10:44;;;;;;;94.88;90.38;;;6.10;99.90;;;;;;5087374;27;20055;-67
2023/05/01 03:13:10;;;;;;;103.07;98.32;;;6.10;99.90;;;;;;5089328;28;20394;-67
2023/05/01 03:15:36;;;;;;;107.68;102.97;;;6.00;99.90;;;;;;5083923;28;20044;-67
2023/05/01 03:18:03;;;;;;;103.15;98.32;;;6.00;99.90;;;;;;5084269;28;20051;-67
2023/05/01 03:20:28;;;;;;;104.50;99.55;;;6.00;99.90;;;;;;5065547;28;20057;-67
2023/05/01 03:22:54;;;;;;;104.97;99.93;;;5.90;99.90;;;;;;5074172;28;20407;-67
2023/05/01 03:25:20;;;;;;;109.80;104.78;;;5.90;99.90;;;;;;5065672;28;20135;-67
2023/05/01 03:27:45;;;;;;;108.32;103.13;;;5.90;99.90;;;;;;5084456;28;20524;-67
2023/05/01 03:30:11;;;;;;;113.13;107.82;;;5.90;99.90;;;;;;5067183;28;20422;-67
2023/05/01 03:32:37;;;;;;;111.55;106.30;;;5.80;99.90;;;;;;5091439;28;20035;-67
2023/05/01 03:35:03;;;;;;;114.13;108.93;;;5.80;99.90;;;;;;5080623;28;20052;-67
2023/05/01 03:37:29;;;;;;;114.50;108.95;;;5.80;99.90;;;;;;5088533;28;20398;-67
2023/05/01 03:39:54;;;;;;;116.50;111.25;;;5.70;99.90;;;;;;5089331;28;20043;-67
2023/05/01 03:42:20;;;;;;;115.82;110.70;;;5.70;99.90;;;;;;5077796;28;20123;-67
2023/05/01 03:44:45;;;;;;;124.00;118.40;;;5.70;99.90;;;;;;5071049;28;20035;-67
2023/05/01 03:47:11;;;;;;;122.82;117.13;;;5.70;99.90;;;;;;5069943;27;20482;-67
2023/05/01 03:49:37;;;;;;;135.60;129.55;;;5.70;99.90;;;;;;5087662;28;20070;-67
2023/05/01 03:52:02;;;;;;;126.78;120.88;;;5.70;99.90;;;;;;5104637;28;20035;-67
2023/05/01 03:54:28;;;;;;;130.05;124.22;;;5.60;99.90;;;;;;5084861;28;20037;-67
2023/05/01 03:56:53;;;;;;;129.23;123.20;;;5.60;99.90;;;;;;5084268;28;20513;-67
2023/05/01 03:59:19;;;;;;;129.40;123.28;;;5.50;99.90;;;;;;5090417;28;20039;-67
2023/05/01 04:01:44;;;;;;;126.75;120.95;;;5.50;99.90;;;;;;5083516;28;20036;-67
2023/05/01 04:04:10;;;;;;;129.05;123.18;;;5.40;99.90;;;;;;5087170;28;20402;-67
2023/05/01 04:06:36;;;;;;;133.10;126.95;;;5.40;99.90;;;;;;5069874;28;20040;-67
2023/05/01 04:09:02;;;;;;;134.43;128.35;;;5.40;99.90;;;;;;5091594;28;20134;-67
2023/05/01 04:11:27;;;;;;;129.65;123.75;;;5.30;99.90;;;;;;5062615;28;20092;-67
2023/05/01 04:13:53;;;;;;;132.85;126.80;;;5.30;99.90;;;;;;5066209;28;20052;-67
2023/05/01 04:16:19;;;;;;;130.07;124.13;;;5.30;99.90;;;;;;5080483;28;20475;-67
2023/05/01 04:18:44;;;;;;;133.82;127.38;;;5.30;99.90;;;;;;5083529;27;20039;-67
2023/05/01 04:21:10;;;;;;;144.93;137.98;;;5.30;99.90;;;;;;5088377;28;20067;-67
2023/05/01 04:23:35;;;;;;;142.15;135.45;;;5.30;99.90;;;;;;5087693;28;20494;-67
2023/05/01 04:26:02;;;;;;;144.15;137.55;;;5.30;99.90;;;;;;5086929;28;20047;-67
2023/05/01 04:28:29;;;;;;;136.85;130.35;;;5.30;99.90;;;;;;5083691;28;20044;-67
2023/05/01 04:30:56;;;;;;;135.25;129.35;;;5.40;99.90;;;;;;5092664;28;20051;-67
2023/05/01 04:33:22;;;;;;;135.63;129.25;;;5.40;99.90;;;;;;5092396;28;20600;-67
2023/05/01 04:35:48;;;;;;;132.55;126.55;;;5.50;99.90;;;;;;5079273;28;20445;-67
2023/05/01 04:38:13;;;;;;;128.23;122.38;;;5.60;99.90;;;;;;5069147;28;20051;-67
2023/05/01 04:40:39;;;;;;;126.60;120.72;;;5.60;99.90;;;;;;5077284;28;20503;-67
2023/05/01 04:43:04;;;;;;;125.40;119.75;;;5.70;99.90;;;;;;5089476;28;20038;-67
2023/05/01 04:45:31;;;;;;;118.85;113.50;;;5.80;99.90;;;;;;5065757;28;20042;-67
2023/05/01 04:47:56;;;;;;;122.22;116.72;;;5.90;99.90;;;;;;5064036;28;20038;-67
2023/05/01 04:50:22;;;;;;;117.78;112.18;;;6.00;99.90;;;;;;5071611;28;20035;-68
2023/05/01 04:52:48;;;;;;;117.28;111.88;;;6.10;99.90;;;;;;5086426;28;20046;-67
2023/05/01 04:55:14;;;;;;;117.47;111.93;;;6.20;99.90;;;;;;5085147;28;20100;-67
2023/05/01 04:57:40;;;;;;;114.22;108.72;;;6.30;99.90;;;;;;5085243;28;20499;-67
2023/05/01 05:00:06;;;;;;;110.28;104.50;;;6.40;99.90;;;;;;5068130;28;20130;-67
2023/05/01 05:02:32;;;;;;;112.43;107.03;;;6.50;99.90;;;;;;5087755;28;20457;-67
2023/05/01 05:04:58;;;;;;;108.07;102.65;;;6.60;99.90;;;;;;5086599;28;20066;-67
2023/05/01 05:07:23;;;;;;;100.43;95.53;;;6.80;99.90;;;;;;5102954;28;20044;-67
2023/05/01 05:09:49;;;;;;;91.10;86.47;;;6.90;99.90;;;;;;5103371;28;20055;-67
2023/05/01 05:12:15;;;;;;;88.15;83.75;;;7.00;99.90;;;;;;5104779;28;20035;-67
2023/05/01 05:14:42;;;;;;;77.38;73.28;;;7.10;99.90;;;;;;5084930;28;20040;-67
2023/05/01 05:17:08;;;;;;;76.85;72.70;;;7.20;99.90;;;;;;5080957;28;20146;-67
2023/05/01 05:19:34;;;;;;;76.22;72.13;;;7.30;99.90;;;;;;5084780;28;20032;-67
2023/05/01 05:22:03;;;;;;;70.75;66.85;;;7.40;99.90;;;;;;5064461;28;20558;-67
2023/05/01 05:24:28;;;;;;;70.65;66.80;;;7.50;99.90;;;;;;5068743;28;20031;-67
2023/05/01 05:26:54;;;;;;;69.50;65.70;;;7.70;99.90;;;;;;5066171;28;20138;-67
2023/05/01 05:29:20;;;;;;;67.13;63.40;;;7.70;99.90;;;;;;5086495;28;20054;-67
2023/05/01 05:31:46;;;;;;;68.57;64.75;;;7.80;99.90;;;;;;5072001;28;20410;-68
2023/05/01 05:34:12;;;;;;;65.95;62.22;;;8.00;99.90;;;;;;5082547;28;20043;-67
2023/05/01 05:36:37;;;;;;;91.43;86.95;;;8.20;99.90;;;;;;5084967;28;20055;-67
2023/05/01 05:39:03;;;;;;;86.00;81.65;;;8.40;99.90;;;;;;5083849;28;20092;-67
2023/05/01 05:41:29;;;;;;;79.05;75.00;;;8.60;99.90;;;;;;5087632;28;20414;-67
2023/05/01 05:43:55;;;;;;;77.85;73.85;;;8.60;99.90;;;;;;5083605;28;20077;-67
2023/05/01 05:46:21;;;;;;;84.28;79.93;;;8.70;99.90;;;;;;5089389;28;20051;-67
2023/05/01 05:48:46;;;;;;;81.32;77.20;;;8.70;99.90;;;;;;5083273;28;20044;-67
2023/05/01 05:51:12;;;;;;;88.45;84.05;;;8.70;99.90;;;;;;5084384;28;20044;-68
2023/05/01 05:53:38;;;;;;;75.28;71.40;;;8.70;99.90;;;;;;5083392;28;20483;-67
2023/05/01 05:56:03;;;;;;;74.75;70.63;;;8.70;99.90;;;;;;5108458;28;20055;-68
2023/05/01 05:58:29;;;;;;;76.80;72.82;;;8.80;99.90;;;;;;5078165;28;20043;-67
2023/05/01 06:00:55;;;;;;;72.80;69.03;;;8.90;99.90;;;;;;5073665;28;20047;-67
2023/05/01 06:03:21;;;;;;;70.72;66.68;;;8.90;99.90;;;;;;5089929;28;20028;-67
2023/05/01 06:05:47;;;;;;;71.35;67.55;;;9.00;99.90;;;;;;5091518;28;20043;-67
2023/05/01 06:08:13;;;;;;;60.65;57.30;;;9.20;99.90;;;;;;5080107;28;20050;-68
2023/05/01 06:10:42;;;;;;;69.63;65.75;;;9.40;99.90;;;;;;5080852;28;20407;-67
2023/05/01 06:13:08;;;;;;;67.78;64.00;;;9.50;99.90;;;;;;5087665;28;20040;-68
2023/05/01 06:15:36;;;;;;;60.95;57.45;;;9.60;99.90;;;;;;5074112;28;20035;-68
2023/05/01 06:18:02;;;;;;;52.35;48.92;;;9.80;99.90;;;;;;5091614;28;20039;-68
2023/05/01 06:20:28;;;;;;;56.60;53.40;;;10.20;99.90;;;;;;5085243;28;20417;-67
2023/05/01 06:22:54;;;;;;;50.92;47.90;;;10.60;99.90;;;;;;5097219;27;20075;-67
2023/05/01 06:25:20;;;;;;;51.60;48.60;;;11.00;99.90;;;;;;5082712;28;20087;-67
2023/05/01 06:27:46;;;;;;;41.45;38.97;;;11.40;99.90;;;;;;5071221;28;20608;-67
2023/05/01 06:30:12;;;;;;;41.15;38.40;;;11.70;99.90;;;;;;5083049;28;20486;-67
2023/05/01 06:32:37;;;;;;;49.40;46.30;;;11.90;99.90;;;;;;5071141;28;20074;-67
2023/05/01 06:35:03;;;;;;;41.40;38.80;;;12.00;99.90;;;;;;5071997;28;20058;-67
2023/05/01 06:37:29;;;;;;;40.60;37.95;;;12.10;99.90;;;;;;5083912;28;20036;-68
2023/05/01 06:39:55;;;;;;;40.40;37.88;;;12.10;99.90;;;;;;5090381;28;20040;-67
2023/05/01 06:42:20;;;;;;;42.45;40.03;;;12.20;99.90;;;;;;5073691;28;20070;-67
2023/05/01 06:44:46;;;;;;;39.70;37.20;;;12.30;99.90;;;;;;5091390;28;20040;-68
2023/05/01 06:47:12;;;;;;;39.75;37.17;;;12.40;99.90;;;;;;5073437;28;20569;-68
2023/05/01 06:49:37;;;;;;;40.08;36.95;;;12.50;99.90;;;;;;5099144;28;20032;-67
2023/05/01 06:52:03;;;;;;;42.47;39.95;;;12.90;99.90;;;;;;5084993;28;20048;-68
2023/05/01 06:54:29;;;;;;;40.50;37.90;;;13.30;99.90;;;;;;5085183;28;20047;-67
2023/05/01 06:56:54;;;;;;;38.58;35.92;;;13.90;99.90;;;;;;5089162;28;20096;-68
2023/05/01 06:59:20;;;;;;;38.47;35.85;;;14.40;99.90;;;;;;5073890;28;20559;-68
2023/05/01 07:01:46;;;;;;;37.78;35.40;;;14.90;99.90;;;;;;5086916;28;20040;-68
2023/05/01 07:04:11;;;;;;;43.25;40.72;;;15.20;99.90;;;;;;5089352;28;20027;-68
2023/05/01 07:06:37;;;;;;;40.25;37.65;;;15.20;99.90;;;;;;5064273;28;20096;-68
2023/05/01 07:09:04;;;;;;;34.05;31.75;;;15.00;99.90;;;;;;5087576;28;20806;-68
2023/05/01 07:11:31;;;;;;;34.15;31.95;;;14.70;99.90;;;;;;5085719;28;20044;-68
2023/05/01 07:13:57;;;;;;;34.60;32.33;;;14.60;99.90;;;;;;5072628;28;20088;-68
2023/05/01 07:16:23;;;;;;;35.45;32.95;;;14.50;99.90;;;;;;5068024;28;20047;-68
2023/05/01 07:18:49;;;;;;;40.60;38.30;;;14.40;99.90;;;;;;5071547;28;20371;-68
2023/05/01 07:21:14;;;;;;;42.17;39.75;;;14.20;99.90;;;;;;5091126;28;20523;-68
2023/05/01 07:23:40;;;;;;;45.97;43.47;;;14.00;99.90;;;;;;5079932;28;20166;-67
2023/05/01 07:26:06;;;;;;;39.88;37.47;;;13.80;99.90;;;;;;5103356;28;20052;-68
2023/05/01 07:28:32;;;;;;;38.42;35.97;;;13.80;99.90;;;;;;5088092;28;20043;-67
2023/05/01 07:30:57;;;;;;;48.05;45.25;;;13.70;99.90;;;;;;5070324;28;20039;-67
2023/05/01 07:33:26;;;;;;;47.78;45.08;;;13.70;99.90;;;;;;5089232;28;20585;-68
2023/05/01 07:35:52;;;;;;;40.63;38.13;;;13.70;99.90;;;;;;5094657;28;20089;-68
2023/05/01 07:38:18;;;;;;;44.28;41.65;;;13.70;99.90;;;;;;5084533;28;20388;-68
2023/05/01 07:40:44;;;;;;;46.55;43.83;;;13.70;99.90;;;;;;5070103;28;20044;-68
2023/05/01 07:43:10;;;;;;;44.50;41.95;;;13.70;99.90;;;;;;5089768;28;20585;-67
2023/05/01 07:45:37;;;;;;;48.08;45.03;;;13.80;99.90;;;;;;5090112;28;20043;-67
2023/05/01 07:48:03;;;;;;;47.85;45.10;;;13.80;99.90;;;;;;5088017;28;20039;-68
2023/05/01 07:50:29;;;;;;;42.00;39.55;;;13.90;99.90;;;;;;5065414;28;20051;-68
2023/05/01 07:52:56;;;;;;;46.05;43.38;;;14.00;99.90;;;;;;5088525;28;20054;-67
2023/05/01 07:55:22;;;;;;;41.83;39.28;;;14.10;99.90;;;;;;5061038;28;20046;-67
2023/05/01 07:57:48;;;;;;;48.25;45.67;;;14.10;99.90;;;;;;5081677;28;20046;-68
2023/05/01 08:00:14;;;;;;;48.85;45.80;;;14.20;99.90;;;;;;5065739;28;20040;-67
2023/05/01 08:02:40;;;;;;;48.75;46.08;;;14.30;99.90;;;;;;5064837;28;20043;-67
2023/05/01 08:05:06;;;;;;;45.33;42.78;;;14.30;99.90;;;;;;5087443;28;20342;-68
2023/05/01 08:07:32;;;;;;;43.25;41.05;;;14.40;99.90;;;;;;5098346;27;20081;-68
2023/05/01 08:09:59;;;;;;;46.28;43.42;;;14.50;99.90;;;;;;5072058;28;20071;-67
2023/05/01 08:12:25;;;;;;;36.58;34.28;;;14.50;99.90;;;;;;5089263;28;20040;-68
2023/05/01 08:14:51;;;;;;;30.65;28.45;;;14.50;99.90;;;;;;5089194;28;20047;-68
2023/05/01 08:17:17;;;;;;;37.78;35.28;;;14.60;99.90;;;;;;5072980;28;20042;-68
2023/05/01 08:19:44;;;;;;;32.97;30.80;;;14.60;99.90;;;;;;5082065;28;20261;-67
2023/05/01 08:22:10;;;;;;;35.45;33.22;;;14.70;99.90;;;;;;5088585;28;20151;-67
2023/05/01 08:24:35;;;;;;;23.25;21.45;;;14.80;99.90;;;;;;5084968;28;20118;-68
2023/05/01 08:27:01;;;;;;;21.52;19.98;;;15.00;99.90;;;;;;5103350;28;20100;-67
2023/05/01 08:29:27;;;;;;;28.80;26.90;;;15.00;99.90;;;;;;5080415;28;20043;-68
2023/05/01 08:31:54;;;;;;;21.77;20.20;;;15.00;99.90;;;;;;5085627;28;20043;-67
2023/05/01 08:34:21;;;;;;;26.27;24.52;;;15.00;99.90;;;;;;5085486;28;20107;-68
2023/05/01 08:36:47;;;;;;;17.15;15.68;;;15.10;99.90;;;;;;5083786;28;20058;-68
2023/05/01 08:39:13;;;;;;;18.42;16.77;;;15.40;99.90;;;;;;5087844;28;20689;-68
2023/05/01 08:41:39;;;;;;;23.63;21.90;;;15.70;99.90;;;;;;5095646;28;20575;-68
2023/05/01 08:44:07;;;;;;;20.77;19.08;;;16.20;98.90;;;;;;5081640;28;20063;-68
2023/05/01 08:46:43;;;;;;;17.92;16.52;;;16.80;97.60;;;;;;5088565;28;20048;-68
2023/05/01 08:49:11;;;;;;;19.75;18.05;;;17.20;95.80;;;;;;5079380;28;20104;-68
2023/05/01 08:51:37;;;;;;;19.02;17.52;;;17.50;92.90;;;;;;5060165;28;20070;-68
2023/05/01 08:54:07;;;;;;;18.55;17.10;;;17.60;93.00;;;;;;5080549;28;20419;-68
2023/05/01 08:56:35;;;;;;;20.23;18.75;;;18.00;93.50;;;;;;5083138;28;20093;-68
2023/05/01 08:59:03;;;;;;;20.55;19.00;;;18.30;92.80;;;;;;5078979;28;20118;-68
2023/05/01 09:01:31;;;;;;;20.67;19.17;;;18.70;92.00;;;;;;5087182;28;20048;-68
2023/05/01 09:04:00;;;;;;;18.80;17.50;;;18.90;90.20;;;;;;5088830;28;20042;-68
2023/05/01 09:06:28;;;;;;;16.98;15.70;;;18.80;85.50;;;;;;5084342;28;20043;-68
2023/05/01 09:08:54;;;;;;;19.63;18.02;;;18.90;87.10;;;;;;5084040;28;20065;-68
2023/05/01 09:11:21;;;;;;;18.65;17.23;;;18.80;85.00;;;;;;5084798;28;20040;-68
2023/05/01 09:13:47;;;;;;;25.90;24.30;;;18.80;84.30;;;;;;5084253;28;20078;-68
2023/05/01 09:16:13;;;;;;;16.58;15.15;;;18.90;86.30;;;;;;5085402;28;20075;-68
2023/05/01 09:18:40;;;;;;;18.90;17.50;;;19.30;86.30;;;;;;5090734;28;20040;-68
2023/05/01 09:21:06;;;;;;;18.27;16.77;;;19.50;84.70;;;;;;5079329;28;20044;-68
2023/05/01 09:23:34;;;;;;;16.38;15.07;;;19.60;83.70;;;;;;5091536;28;20051;-68
2023/05/01 09:26:03;;;;;;;16.27;14.95;;;19.70;84.00;;;;;;5089517;28;20109;-68
2023/05/01 09:28:43;;;;;;;16.63;15.25;;;19.80;81.30;;;;;;5087889;28;20040;-68
2023/05/01 09:31:31;;;;;;;16.13;14.93;;;20.10;80.20;;;;;;5086826;28;20062;-68
2023/05/01 09:34:02;;;;;;;19.17;17.60;;;20.10;79.70;;;;;;5078662;28;20031;-67
2023/05/01 09:36:32;;;;;;;19.60;18.10;;;20.10;81.10;;;;;;5067872;28;20044;-67
2023/05/01 09:39:01;;;;;;;17.52;16.02;;;20.20;78.40;;;;;;5088537;28;20040;-68
2023/05/01 09:41:28;;;;;;;17.92;16.58;;;20.20;78.90;;;;;;5084842;28;20040;-67
2023/05/01 09:43:55;;;;;;;16.42;15.23;;;20.10;76.10;;;;;;5082425;28;20440;-67
2023/05/01 09:46:23;;;;;;;18.02;16.65;;;20.00;74.90;;;;;;5086624;28;20379;-67
2023/05/01 09:48:55;;;;;;;18.70;17.30;;;19.70;75.60;;;;;;5083877;28;20077;-68
2023/05/01 09:51:28;;;;;;;16.85;15.55;;;19.70;79.80;;;;;;5082723;28;20050;-68
2023/05/01 09:54:18;;;;;;;17.00;15.70;;;19.70;75.70;;;;;;5086655;28;20098;-68
2023/05/01 09:56:48;;;;;;;19.30;17.90;;;19.60;72.90;;;;;;5088351;28;20087;-67
2023/05/01 09:59:16;;;;;;;19.23;17.75;;;19.60;73.70;;;;;;5086678;28;20109;-68
2023/05/01 10:01:44;;;;;;;25.38;23.77;;;19.70;76.60;;;;;;5086772;28;20089;-68
2023/05/01 10:04:09;;;;;;;18.65;16.92;;;20.00;78.30;;;;;;5086923;28;20516;-67
2023/05/01 10:06:36;;;;;;;16.25;15.02;;;20.30;79.20;;;;;;5083821;28;20154;-67
2023/05/01 10:09:03;;;;;;;18.60;17.13;;;20.50;74.00;;;;;;5075030;28;20036;-67
2023/05/01 10:11:29;;;;;;;16.00;14.90;;;20.40;75.70;;;;;;5080248;28;20055;-67
2023/05/01 10:14:09;;;;;;;16.80;15.50;;;20.40;73.60;;;;;;5082000;28;20044;-67
2023/05/01 10:16:36;;;;;;;22.35;20.75;;;20.20;73.50;;;;;;5099693;28;20153;-67
2023/05/01 10:19:03;;;;;;;20.63;19.23;;;20.20;75.20;;;;;;5085208;28;20067;-67
2023/05/01 10:21:31;;;;;;;18.25;16.95;;;20.20;76.30;;;;;;5088438;28;20048;-67
2023/05/01 10:23:57;;;;;;;17.90;16.52;;;20.30;75.50;;;;;;5085916;28;20051;-67
2023/05/01 10:26:25;;;;;;;19.42;17.92;;;20.40;76.80;;;;;;5093487;28;20059;-67
2023/05/01 10:28:51;;;;;;;17.02;15.63;;;20.60;75.50;;;;;;5072828;28;20161;-68
2023/05/01 10:31:17;;;;;;;16.35;15.15;;;20.60;74.30;;;;;;5068632;28;20043;-67
2023/05/01 10:33:44;;;;;;;16.35;15.15;;;20.60;75.90;;;;;;5099808;27;20205;-67
2023/05/01 10:36:20;;;;;;;30.92;29.15;;;20.70;76.80;;;;;;5084250;28;20047;-67
2023/05/01 10:38:47;;;;;;;37.00;34.80;;;20.90;76.70;;;;;;5108865;28;20109;-67
2023/05/01 10:41:15;;;;;;;16.88;15.55;;;21.00;79.80;;;;;;5082080;28;20083;-67
2023/05/01 10:43:41;;;;;;;17.98;16.88;;;21.10;73.50;;;;;;5090173;28;20048;-67
2023/05/01 10:46:07;;;;;;;16.10;14.90;;;21.00;75.00;;;;;;5087630;28;20458;-67
2023/05/01 10:48:38;;;;;;;15.35;14.35;;;20.90;77.10;;;;;;5085695;28;20043;-67
2023/05/01 10:51:19;;;;;;;30.67;28.98;;;21.00;77.20;;;;;;5070712;27;20158;-67
2023/05/01 10:53:46;;;;;;;14.40;13.30;;;21.00;77.70;;;;;;5077814;28;20100;-67
2023/05/01 10:56:24;;;;;;;15.07;13.98;;;21.10;76.70;;;;;;5078838;28;20050;-67
2023/05/01 10:58:53;;;;;;;16.05;15.05;;;21.10;73.70;;;;;;5065436;28;20040;-67
2023/05/01 11:01:36;;;;;;;16.08;15.05;;;20.70;72.60;;;;;;5084330;28;20039;-67
2023/05/01 11:04:26;;;;;;;21.25;19.88;;;20.30;74.90;;;;;;5093646;28;20118;-67
2023/05/01 11:07:04;;;;;;;19.33;18.13;;;19.90;76.70;;;;;;5069222;28;20036;-67
2023/05/01 11:09:57;;;;;;;18.10;16.90;;;19.90;77.30;;;;;;5077422;28;20090;-67
2023/05/01 11:12:45;;;;;;;15.52;14.52;;;20.00;78.00;;;;;;5061858;28;20036;-67
2023/05/01 11:15:12;;;;;;;15.55;14.45;;;20.30;74.80;;;;;;5081902;28;20035;-67
2023/05/01 11:17:41;;;;;;;16.02;14.88;;;20.30;75.10;;;;;;5086722;28;20043;-68
2023/05/01 11:20:10;;;;;;;15.55;14.55;;;20.50;76.50;;;;;;5076721;28;20093;-67
2023/05/01 11:22:38;;;;;;;19.55;18.40;;;20.60;76.50;;;;;;5078364;28;20041;-67
2023/05/01 11:25:20;;;;;;;19.58;18.35;;;20.70;78.10;;;;;;5080277;27;20050;-67
2023/05/01 11:27:53;;;;;;;16.67;15.60;;;20.90;77.00;;;;;;5087753;28;20051;-67
2023/05/01 11:30:19;;;;;;;14.27;13.32;;;20.90;75.80;;;;;;5080292;28;20092;-67
2023/05/01 11:32:47;;;;;;;16.55;15.48;;;20.80;74.50;;;;;;5089884;28;20047;-67
2023/05/01 11:35:21;;;;;;;15.93;14.73;;;20.70;75.40;;;;;;5080923;28;20044;-67
2023/05/01 11:37:47;;;;;;;18.65;17.23;;;20.70;74.60;;;;;;5106894;28;20039;-67
2023/05/01 11:40:28;;;;;;;17.48;16.35;;;20.70;74.40;;;;;;5083872;28;20043;-67
2023/05/01 11:43:05;;;;;;;16.35;15.25;;;20.60;73.20;;;;;;5085233;28;20115;-67
2023/05/01 11:45:31;;;;;;;17.17;16.08;;;20.40;74.40;;;;;;5076311;28;20064;-67
2023/05/01 11:47:57;;;;;;;19.05;17.77;;;20.50;76.30;;;;;;5085938;28;20118;-67
2023/05/01 11:50:31;;;;;;;18.48;17.27;;;20.40;75.30;;;;;;5084444;28;20075;-67
2023/05/01 11:52:57;;;;;;;16.23;15.00;;;20.40;73.10;;;;;;5084544;27;20087;-67
2023/05/01 11:55:33;;;;;;;40.03;37.97;;;20.20;74.20;;;;;;5088826;28;20048;-67
2023/05/01 11:57:59;;;;;;;35.47;33.58;;;20.10;77.80;;;;;;5084153;28;20036;-67
2023/05/01 12:00:37;;;;;;;20.05;18.67;;;20.10;77.00;;;;;;5088315;28;20101;-67
2023/05/01 12:03:11;;;;;;;25.65;24.10;;;20.20;74.80;;;;;;5087814;28;20047;-66
2023/05/01 12:05:42;;;;;;;28.63;27.05;;;20.10;75.40;;;;;;5067479;28;20088;-67
2023/05/01 12:08:19;;;;;;;16.15;14.95;;;19.90;75.00;;;;;;5064973;28;20537;-67
2023/05/01 12:10:48;;;;;;;51.20;48.65;;;19.50;74.60;;;;;;5100396;28;20075;-67
2023/05/01 12:13:14;;;;;;;42.58;40.33;;;19.30;76.90;;;;;;5071659;28;20077;-66
2023/05/01 12:15:51;;;;;;;32.10;30.33;;;19.20;77.90;;;;;;5095521;28;20419;-67
2023/05/01 12:18:17;;;;;;;47.50;45.15;;;19.20;77.70;;;;;;5098982;28;20040;-66
2023/05/01 12:20:52;;;;;;;44.28;41.92;;;19.10;76.80;;;;;;5083977;28;20148;-67
2023/05/01 12:23:28;;;;;;;47.40;45.10;;;19.00;78.80;;;;;;5080979;28;20491;-67
2023/05/01 12:25:54;;;;;;;29.92;28.38;;;19.10;80.20;;;;;;5080329;28;20052;-67
2023/05/01 12:28:19;;;;;;;20.02;18.83;;;19.20;77.50;;;;;;5084847;28;20066;-66
2023/05/01 12:30:47;;;;;;;43.20;41.05;;;19.30;77.40;;;;;;5079770;28;20511;-67
2023/05/01 12:33:18;;;;;;;27.48;25.88;;;19.40;77.90;;;;;;5072333;28;20129;-67
2023/05/01 12:35:45;;;;;;;38.65;36.60;;;19.40;77.90;;;;;;5068989;28;20522;-67